Time;durP1;ratioP1;P1;durP2;ratioP2;P2;SDS_P1;SDS_P2;PMS_P1;PMS_P2;Temp;Humidity;BMP_temperature;BMP_pressure;BME280_temperature;BME280_humidity;BME280_pressure;Samples;Min_cycle;Max_cycle;Signal;HPM_P1;HPM_P2
2023/01/31 00:01:09;;;;;;;18.07;4.60;;;4.10;99.90;;;;;;5003965;28;20267;-74
2023/01/31 00:03:35;;;;;;;16.20;4.00;;;4.20;99.90;;;;;;5012911;28;20217;-73
2023/01/31 00:06:19;;;;;;;19.43;4.50;;;4.10;99.90;;;;;;5005948;28;20229;-71
2023/01/31 00:08:46;;;;;;;19.60;4.17;;;4.10;99.90;;;;;;5026283;28;20664;-74
2023/01/31 00:11:12;;;;;;;18.33;5.00;;;4.10;99.90;;;;;;5027267;28;20333;-74
2023/01/31 00:13:38;;;;;;;16.57;4.03;;;4.10;99.90;;;;;;5012492;28;20301;-75
2023/01/31 00:16:04;;;;;;;13.80;3.60;;;4.10;99.90;;;;;;5027168;28;20705;-74
2023/01/31 00:18:30;;;;;;;19.87;4.20;;;4.10;99.90;;;;;;5023222;28;20594;-74
2023/01/31 00:20:55;;;;;;;18.20;3.80;;;4.10;99.90;;;;;;5026269;28;20176;-75
2023/01/31 00:23:21;;;;;;;23.67;3.73;;;4.10;99.90;;;;;;5025322;28;20177;-74
2023/01/31 00:25:47;;;;;;;21.27;4.17;;;4.10;99.90;;;;;;5023132;28;20223;-72
2023/01/31 00:28:12;;;;;;;18.63;4.13;;;4.10;99.90;;;;;;5021523;28;20666;-74
2023/01/31 00:30:38;;;;;;;22.47;3.43;;;4.10;99.90;;;;;;5006904;28;20266;-72
2023/01/31 00:33:04;;;;;;;19.73;4.10;;;4.00;99.90;;;;;;5023288;28;20234;-74
2023/01/31 00:35:29;;;;;;;13.50;3.70;;;4.00;99.90;;;;;;5024807;28;20693;-74
2023/01/31 00:37:55;;;;;;;20.90;3.53;;;4.00;99.90;;;;;;5022864;28;20781;-74
2023/01/31 00:40:20;;;;;;;16.43;3.83;;;4.00;99.90;;;;;;5010841;28;20263;-74
2023/01/31 00:42:46;;;;;;;10.90;2.97;;;4.00;99.90;;;;;;5028881;28;20299;-74
2023/01/31 00:45:12;;;;;;;24.07;3.67;;;4.00;99.90;;;;;;5008363;28;20722;-74
2023/01/31 00:47:38;;;;;;;15.33;4.47;;;4.00;99.90;;;;;;5028128;28;20199;-74
2023/01/31 00:50:04;;;;;;;20.57;4.07;;;4.10;99.90;;;;;;5023390;28;20243;-74
2023/01/31 00:52:30;;;;;;;16.53;3.53;;;4.10;99.90;;;;;;5024458;28;20220;-73
2023/01/31 00:54:56;;;;;;;16.07;3.33;;;4.10;99.90;;;;;;5024338;28;20207;-74
2023/01/31 00:57:21;;;;;;;14.80;3.27;;;4.20;99.90;;;;;;5019460;28;20227;-74
2023/01/31 00:59:47;;;;;;;18.40;3.30;;;4.20;99.90;;;;;;5027871;28;20193;-74
2023/01/31 01:02:13;;;;;;;16.83;3.10;;;4.30;99.90;;;;;;5023022;28;20557;-74
2023/01/31 01:04:38;;;;;;;14.10;3.20;;;4.30;99.90;;;;;;5021943;28;20291;-74
2023/01/31 01:07:04;;;;;;;14.60;3.13;;;4.40;99.90;;;;;;5027697;28;20230;-72
2023/01/31 01:09:30;;;;;;;13.30;3.17;;;4.40;99.90;;;;;;5021268;28;20226;-74
2023/01/31 01:11:55;;;;;;;14.20;2.80;;;4.40;99.90;;;;;;5010369;28;20176;-74
2023/01/31 01:14:21;;;;;;;16.83;3.63;;;4.50;99.90;;;;;;5032868;28;20382;-73
2023/01/31 01:16:47;;;;;;;15.63;3.17;;;4.50;99.90;;;;;;5025098;28;20298;-73
2023/01/31 01:19:17;;;;;;;10.63;2.93;;;4.50;99.90;;;;;;5027049;28;20258;-73
2023/01/31 01:21:43;;;;;;;11.30;3.50;;;4.50;99.90;;;;;;5023056;28;20747;-73
2023/01/31 01:24:17;;;;;;;13.97;3.10;;;4.60;99.90;;;;;;5006847;28;20215;-73
2023/01/31 01:26:44;;;;;;;16.03;3.23;;;4.50;99.90;;;;;;5024195;28;20700;-74
2023/01/31 01:29:11;;;;;;;11.47;2.67;;;4.50;99.90;;;;;;5023119;28;20251;-74
2023/01/31 01:31:38;;;;;;;13.40;2.40;;;4.50;99.90;;;;;;5023143;28;20284;-75
2023/01/31 01:34:07;;;;;;;16.63;2.83;;;4.50;99.90;;;;;;5021049;28;20207;-74
2023/01/31 01:36:36;;;;;;;17.30;3.47;;;4.60;99.90;;;;;;5025515;28;20239;-74
2023/01/31 01:39:03;;;;;;;8.23;2.57;;;4.50;99.90;;;;;;5024809;28;21363;-74
2023/01/31 01:41:32;;;;;;;16.47;3.50;;;4.50;99.90;;;;;;5020504;28;20238;-74
2023/01/31 01:43:59;;;;;;;15.50;2.50;;;4.50;99.90;;;;;;5026824;28;20310;-74
2023/01/31 01:46:37;;;;;;;15.93;3.50;;;4.50;99.90;;;;;;5026054;28;20259;-74
2023/01/31 01:49:24;;;;;;;13.20;3.37;;;4.50;99.90;;;;;;5025030;28;20629;-74
2023/01/31 01:51:52;;;;;;;17.87;3.30;;;4.50;99.90;;;;;;5019544;28;20279;-73
2023/01/31 01:54:24;;;;;;;20.07;2.83;;;4.50;99.90;;;;;;5022109;28;20295;-74
2023/01/31 01:56:55;;;;;;;13.83;2.87;;;4.50;99.90;;;;;;5025920;28;20761;-74
2023/01/31 01:59:45;;;;;;;15.43;2.90;;;4.60;99.90;;;;;;5023454;28;20188;-74
2023/01/31 02:02:12;;;;;;;16.73;2.53;;;4.60;99.90;;;;;;5021646;28;20686;-74
2023/01/31 02:04:41;;;;;;;20.00;3.97;;;4.50;99.90;;;;;;5005268;28;20213;-74
2023/01/31 02:07:07;;;;;;;12.33;3.00;;;4.60;99.90;;;;;;5022587;28;20295;-75
2023/01/31 02:10:20;;;;;;;13.23;2.70;;;4.60;99.90;;;;;;5027780;28;20211;-74
2023/01/31 02:12:46;;;;;;;14.23;3.03;;;4.50;99.90;;;;;;5012973;28;20299;-74
2023/01/31 02:15:11;;;;;;;16.87;3.00;;;4.50;99.90;;;;;;5014159;28;20311;-75
2023/01/31 02:17:37;;;;;;;17.77;2.50;;;4.50;99.90;;;;;;5025074;28;20197;-75
2023/01/31 02:20:37;;;;;;;14.53;3.13;;;4.50;99.90;;;;;;5031650;28;20258;-75
2023/01/31 02:23:17;;;;;;;17.63;3.30;;;4.50;99.90;;;;;;5036189;28;20638;-73
2023/01/31 02:26:41;;;;;;;13.17;2.90;;;4.60;99.90;;;;;;5027457;28;20215;-75
2023/01/31 02:29:30;;;;;;;15.87;2.90;;;4.60;99.90;;;;;;4987610;28;20213;-73
2023/01/31 02:32:20;;;;;;;16.37;2.80;;;4.50;99.90;;;;;;5019528;28;20216;-75
2023/01/31 02:35:01;;;;;;;15.53;2.70;;;4.50;99.90;;;;;;5021761;28;20694;-75
2023/01/31 02:37:47;;;;;;;18.77;3.13;;;4.50;99.90;;;;;;5036784;28;20664;-72
2023/01/31 02:40:44;;;;;;;15.20;2.60;;;4.50;99.90;;;;;;5029325;28;20211;-74
2023/01/31 02:43:28;;;;;;;16.20;2.60;;;4.50;99.90;;;;;;5024366;28;20587;-73
2023/01/31 02:46:15;;;;;;;17.73;3.53;;;4.40;99.90;;;;;;5026543;28;20215;-72
2023/01/31 02:48:52;;;;;;;19.37;3.90;;;4.30;99.90;;;;;;5024039;28;20251;-74
2023/01/31 02:51:30;;;;;;;14.53;2.97;;;4.20;99.90;;;;;;5026025;28;20235;-74
2023/01/31 02:54:11;;;;;;;10.00;2.80;;;4.10;99.90;;;;;;5027667;28;20680;-74
2023/01/31 02:56:39;;;;;;;11.03;3.07;;;4.00;99.90;;;;;;5023010;28;20228;-72
2023/01/31 02:59:27;;;;;;;15.77;2.50;;;4.00;99.90;;;;;;5044482;28;20231;-73
2023/01/31 03:02:01;;;;;;;9.73;2.90;;;4.00;99.90;;;;;;5033663;28;20576;-73
2023/01/31 03:04:32;;;;;;;11.93;2.87;;;3.90;99.90;;;;;;5028498;28;20205;-73
2023/01/31 03:07:04;;;;;;;14.53;2.70;;;3.90;99.90;;;;;;5033694;28;20304;-73
2023/01/31 03:09:51;;;;;;;12.87;2.80;;;3.80;99.90;;;;;;5024579;28;20214;-74
2023/01/31 03:12:34;;;;;;;14.70;2.90;;;3.80;99.90;;;;;;5044875;28;20217;-74
2023/01/31 03:15:02;;;;;;;9.47;2.53;;;3.80;99.90;;;;;;5044366;28;20184;-74
2023/01/31 03:17:47;;;;;;;16.57;2.83;;;3.80;99.90;;;;;;5047369;28;20254;-74
2023/01/31 03:20:30;;;;;;;12.60;2.57;;;3.70;99.90;;;;;;5043648;28;20684;-73
2023/01/31 03:23:05;;;;;;;14.13;3.13;;;3.70;99.90;;;;;;5046688;28;20225;-73
2023/01/31 03:25:34;;;;;;;13.80;2.50;;;3.70;99.90;;;;;;5044016;28;20246;-74
2023/01/31 03:28:05;;;;;;;10.23;2.90;;;3.70;99.90;;;;;;5044113;28;20227;-74
2023/01/31 03:30:39;;;;;;;10.70;2.40;;;3.70;99.90;;;;;;5046006;28;20587;-71
2023/01/31 03:33:13;;;;;;;11.87;2.00;;;3.60;99.90;;;;;;5023252;28;20215;-72
2023/01/31 03:35:40;;;;;;;12.30;2.53;;;3.60;99.90;;;;;;5048776;28;20209;-72
2023/01/31 03:38:24;;;;;;;12.93;3.33;;;3.60;99.90;;;;;;5046033;28;20211;-72
2023/01/31 03:40:59;;;;;;;10.27;2.53;;;3.50;99.90;;;;;;5043196;28;20214;-72
2023/01/31 03:43:30;;;;;;;21.57;3.40;;;3.50;99.90;;;;;;5031113;28;20369;-72
2023/01/31 03:46:15;;;;;;;12.50;2.57;;;3.50;99.90;;;;;;5028598;28;20223;-72
2023/01/31 03:48:44;;;;;;;14.07;2.57;;;3.50;99.90;;;;;;5029076;28;20268;-71
2023/01/31 03:51:17;;;;;;;10.77;2.70;;;3.50;99.90;;;;;;5028992;28;20549;-72
2023/01/31 03:53:57;;;;;;;11.27;2.63;;;3.50;99.90;;;;;;5044669;28;20247;-72
2023/01/31 03:56:46;;;;;;;12.53;2.63;;;3.40;99.90;;;;;;5040064;28;20230;-72
2023/01/31 03:59:16;;;;;;;15.97;2.60;;;3.40;99.90;;;;;;5044976;28;20205;-71
2023/01/31 04:01:47;;;;;;;10.20;2.67;;;3.40;99.90;;;;;;5029787;28;20226;-72
2023/01/31 04:04:23;;;;;;;11.93;3.00;;;3.50;99.90;;;;;;5042322;28;20251;-72
2023/01/31 04:06:49;;;;;;;13.13;2.30;;;3.50;99.90;;;;;;5047264;28;20722;-72
2023/01/31 04:09:15;;;;;;;12.00;3.47;;;3.40;99.90;;;;;;5045010;28;20301;-72
2023/01/31 04:11:41;;;;;;;15.13;2.93;;;3.50;99.90;;;;;;5041518;28;20189;-72
2023/01/31 04:14:08;;;;;;;14.33;3.03;;;3.40;99.90;;;;;;5029535;28;20247;-73
2023/01/31 04:16:34;;;;;;;13.57;2.60;;;3.50;99.90;;;;;;5043208;28;20287;-72
2023/01/31 04:19:00;;;;;;;9.93;2.50;;;3.50;99.90;;;;;;5045818;28;20215;-73
2023/01/31 04:21:25;;;;;;;11.63;3.07;;;3.40;99.90;;;;;;5046483;28;20289;-72
2023/01/31 04:23:51;;;;;;;9.93;2.47;;;3.40;99.90;;;;;;5042605;28;20177;-72
2023/01/31 04:26:16;;;;;;;12.13;2.93;;;3.40;99.90;;;;;;5047121;28;20348;-72
2023/01/31 04:28:42;;;;;;;18.20;2.87;;;3.40;99.90;;;;;;5044007;28;20210;-72
2023/01/31 04:31:08;;;;;;;12.87;2.80;;;3.40;99.90;;;;;;5045495;28;20215;-73
2023/01/31 04:33:34;;;;;;;14.80;2.67;;;3.30;99.90;;;;;;5044191;28;20216;-73
2023/01/31 04:36:00;;;;;;;8.30;2.23;;;3.30;99.90;;;;;;5042371;28;20211;-72
2023/01/31 04:38:25;;;;;;;7.50;2.10;;;3.30;99.90;;;;;;5044685;28;20578;-72
2023/01/31 04:40:51;;;;;;;12.87;2.47;;;3.30;99.90;;;;;;5043799;28;20762;-72
2023/01/31 04:43:16;;;;;;;9.23;2.27;;;3.30;99.90;;;;;;5024868;28;20676;-73
2023/01/31 04:45:42;;;;;;;21.97;3.43;;;3.20;99.90;;;;;;5028276;28;20301;-73
2023/01/31 04:48:08;;;;;;;12.50;2.30;;;3.20;99.90;;;;;;5030881;28;20221;-73
2023/01/31 04:50:33;;;;;;;14.63;4.07;;;3.20;99.90;;;;;;5046791;28;20181;-72
2023/01/31 04:52:59;;;;;;;14.87;3.10;;;3.20;99.90;;;;;;5045617;28;20239;-73
2023/01/31 04:55:26;;;;;;;14.23;2.70;;;3.20;99.90;;;;;;5031802;28;20221;-73
2023/01/31 04:57:52;;;;;;;11.23;2.50;;;3.30;99.90;;;;;;5046527;28;20226;-72
2023/01/31 05:00:18;;;;;;;13.02;2.53;;;3.30;99.90;;;;;;5044623;28;20486;-73
2023/01/31 05:02:44;;;;;;;16.17;3.47;;;3.30;99.90;;;;;;5042956;28;20186;-73
2023/01/31 05:05:11;;;;;;;12.67;2.97;;;3.30;99.90;;;;;;5025091;28;20203;-72
2023/01/31 05:07:38;;;;;;;16.87;2.63;;;3.40;99.90;;;;;;5041812;28;20246;-72
2023/01/31 05:10:04;;;;;;;16.20;3.40;;;3.30;99.90;;;;;;5047131;28;20686;-72
2023/01/31 05:12:30;;;;;;;12.47;3.10;;;3.30;99.90;;;;;;5041063;28;20208;-73
2023/01/31 05:14:55;;;;;;;13.40;2.77;;;3.30;99.90;;;;;;5043294;28;20265;-73
2023/01/31 05:17:28;;;;;;;13.57;2.57;;;3.30;99.90;;;;;;5045141;28;20287;-73
2023/01/31 05:19:56;;;;;;;9.23;2.27;;;3.40;99.90;;;;;;5042005;28;20199;-73
2023/01/31 05:22:22;;;;;;;9.37;2.00;;;3.40;99.90;;;;;;5046297;28;20274;-72
2023/01/31 05:24:48;;;;;;;11.73;2.40;;;3.40;99.90;;;;;;5040879;28;20711;-72
2023/01/31 05:27:15;;;;;;;11.10;2.40;;;3.40;99.90;;;;;;5026686;28;20737;-72
2023/01/31 05:29:41;;;;;;;9.13;2.63;;;3.40;99.90;;;;;;5041585;28;20182;-72
2023/01/31 05:32:07;;;;;;;14.37;3.57;;;3.40;99.90;;;;;;5042630;28;20203;-73
2023/01/31 05:34:33;;;;;;;10.53;2.03;;;3.40;99.90;;;;;;5043722;28;20660;-72
2023/01/31 05:37:00;;;;;;;13.00;2.53;;;3.50;99.90;;;;;;5042372;28;20214;-74
2023/01/31 05:39:26;;;;;;;14.73;2.80;;;3.60;99.90;;;;;;5042140;28;20211;-72
2023/01/31 05:41:52;;;;;;;9.93;2.40;;;3.60;99.90;;;;;;5043800;28;20176;-73
2023/01/31 05:44:18;;;;;;;16.43;3.33;;;3.70;99.90;;;;;;5046558;28;20236;-74
2023/01/31 05:46:44;;;;;;;16.63;2.73;;;3.80;99.90;;;;;;5050416;28;20567;-74
2023/01/31 05:49:11;;;;;;;14.37;3.10;;;3.80;99.90;;;;;;5048350;28;20229;-73
2023/01/31 05:51:37;;;;;;;14.37;2.83;;;3.90;99.90;;;;;;5031296;28;20207;-74
2023/01/31 05:54:02;;;;;;;15.17;2.90;;;3.90;99.90;;;;;;5032247;28;20259;-74
2023/01/31 05:56:28;;;;;;;16.17;2.57;;;3.90;99.90;;;;;;5046405;28;20337;-74
2023/01/31 05:58:54;;;;;;;13.37;2.70;;;4.00;99.90;;;;;;5047840;28;20225;-74
2023/01/31 06:01:22;;;;;;;12.27;3.03;;;4.00;99.90;;;;;;5026924;28;20281;-74
2023/01/31 06:03:47;;;;;;;15.77;3.10;;;4.00;99.90;;;;;;5033590;28;20212;-73
2023/01/31 06:06:31;;;;;;;13.40;3.37;;;4.00;99.90;;;;;;5032209;28;20222;-75
2023/01/31 06:08:57;;;;;;;15.07;3.03;;;4.10;99.90;;;;;;5046525;28;20590;-74
2023/01/31 06:11:24;;;;;;;15.37;3.07;;;4.10;99.90;;;;;;5047493;28;20179;-74
2023/01/31 06:13:49;;;;;;;15.60;3.47;;;4.10;99.90;;;;;;5026863;28;20288;-74
2023/01/31 06:16:15;;;;;;;14.23;3.17;;;4.10;99.90;;;;;;5048687;28;20211;-75
2023/01/31 06:18:41;;;;;;;18.70;3.77;;;4.10;99.90;;;;;;5030848;28;20215;-74
2023/01/31 06:21:07;;;;;;;17.17;3.43;;;4.10;99.90;;;;;;5047315;28;20581;-74
2023/01/31 06:23:35;;;;;;;18.13;3.73;;;4.10;99.90;;;;;;5044952;28;20618;-74
2023/01/31 06:26:01;;;;;;;14.63;3.27;;;4.10;99.90;;;;;;5045663;28;20378;-71
2023/01/31 06:28:27;;;;;;;12.73;3.20;;;4.20;99.90;;;;;;5043409;28;20290;-74
2023/01/31 06:30:52;;;;;;;19.70;2.90;;;4.20;99.90;;;;;;5049128;28;20287;-75
2023/01/31 06:33:18;;;;;;;17.90;4.03;;;4.20;99.90;;;;;;5033298;28;20207;-73
2023/01/31 06:35:44;;;;;;;18.20;3.27;;;4.20;99.90;;;;;;5045132;28;20190;-73
2023/01/31 06:38:12;;;;;;;12.17;3.50;;;4.20;99.90;;;;;;5049455;28;20216;-73
2023/01/31 06:40:37;;;;;;;17.37;2.73;;;4.20;99.90;;;;;;5042518;28;20809;-71
2023/01/31 06:43:03;;;;;;;9.77;2.80;;;4.20;99.90;;;;;;5047030;28;20216;-73
2023/01/31 06:45:29;;;;;;;11.07;2.93;;;4.20;99.90;;;;;;5031910;28;20230;-74
2023/01/31 06:47:54;;;;;;;10.30;3.23;;;4.20;99.90;;;;;;5044129;28;20564;-74
2023/01/31 06:50:20;;;;;;;12.60;3.10;;;4.20;99.90;;;;;;5049904;28;20523;-73
2023/01/31 06:52:45;;;;;;;12.60;2.50;;;4.20;99.90;;;;;;5022937;28;20219;-73
2023/01/31 06:55:11;;;;;;;13.37;2.53;;;4.30;99.90;;;;;;5047594;28;20662;-74
2023/01/31 06:57:45;;;;;;;14.57;2.50;;;4.30;99.90;;;;;;5045185;28;20226;-74
2023/01/31 07:00:11;;;;;;;9.40;2.87;;;4.30;99.90;;;;;;5044626;28;20214;-74
2023/01/31 07:02:37;;;;;;;11.23;3.27;;;4.30;99.90;;;;;;5030256;28;20184;-74
2023/01/31 07:05:03;;;;;;;12.70;2.80;;;4.30;99.90;;;;;;5026689;28;20743;-73
2023/01/31 07:07:28;;;;;;;13.97;3.20;;;4.30;99.90;;;;;;5047066;28;20204;-73
2023/01/31 07:09:55;;;;;;;15.43;2.90;;;4.30;99.90;;;;;;5046288;28;20596;-73
2023/01/31 07:12:21;;;;;;;11.80;3.00;;;4.30;99.90;;;;;;5043156;28;20226;-74
2023/01/31 07:14:46;;;;;;;11.80;2.53;;;4.30;99.90;;;;;;5046286;28;20184;-74
2023/01/31 07:17:12;;;;;;;15.47;3.10;;;4.30;99.90;;;;;;5044972;28;20241;-74
2023/01/31 07:19:37;;;;;;;14.80;3.03;;;4.30;99.90;;;;;;5043460;28;20212;-73
2023/01/31 07:22:03;;;;;;;10.43;2.60;;;4.40;99.90;;;;;;5048041;28;20210;-73
2023/01/31 07:24:29;;;;;;;18.00;2.77;;;4.40;99.90;;;;;;5042714;28;20241;-74
2023/01/31 07:26:54;;;;;;;15.63;3.10;;;4.30;99.90;;;;;;5047371;28;20667;-73
2023/01/31 07:29:20;;;;;;;13.20;3.03;;;4.40;99.90;;;;;;5026710;28;20556;-74
2023/01/31 07:31:45;;;;;;;14.13;3.27;;;4.40;99.90;;;;;;5046430;28;20235;-74
2023/01/31 07:34:11;;;;;;;11.87;3.30;;;4.40;99.90;;;;;;5030317;28;20291;-73
2023/01/31 07:36:37;;;;;;;10.40;2.63;;;4.40;99.90;;;;;;5041986;28;20232;-73
2023/01/31 07:39:02;;;;;;;13.93;3.63;;;4.40;99.90;;;;;;5027770;28;20211;-73
2023/01/31 07:41:28;;;;;;;13.90;2.43;;;4.40;99.90;;;;;;5046468;28;20180;-74
2023/01/31 07:43:54;;;;;;;15.77;4.33;;;4.40;99.90;;;;;;5040688;28;20307;-73
2023/01/31 07:46:19;;;;;;;10.07;3.27;;;4.50;99.90;;;;;;5032660;28;20636;-73
2023/01/31 07:48:45;;;;;;;14.97;3.73;;;4.50;99.90;;;;;;5024475;28;20226;-74
2023/01/31 07:51:11;;;;;;;14.87;3.00;;;4.50;99.90;;;;;;5028543;28;20250;-74
2023/01/31 07:53:40;;;;;;;9.37;2.53;;;4.50;99.90;;;;;;5027874;28;20179;-73
2023/01/31 07:56:15;;;;;;;12.37;2.93;;;4.50;99.90;;;;;;5025743;28;20912;-73
2023/01/31 07:58:42;;;;;;;17.07;3.07;;;4.50;99.90;;;;;;5044910;28;20352;-74
2023/01/31 08:04:08;;;;;;;12.00;2.57;;;4.60;99.90;;;;;;5041677;28;20222;-73
2023/01/31 08:06:34;;;;;;;12.23;2.80;;;4.60;99.90;;;;;;5026216;28;20229;-74
2023/01/31 08:09:00;;;;;;;14.03;3.03;;;4.60;99.90;;;;;;5042251;28;20274;-73
2023/01/31 08:11:26;;;;;;;20.80;3.20;;;4.60;99.90;;;;;;5033411;28;20236;-73
2023/01/31 08:13:51;;;;;;;11.80;3.00;;;4.70;99.90;;;;;;5023126;28;20223;-74
2023/01/31 08:16:19;;;;;;;16.67;2.97;;;4.70;99.90;;;;;;5046440;28;20213;-73
2023/01/31 08:18:44;;;;;;;12.70;2.90;;;4.80;99.90;;;;;;5044580;28;20298;-74
2023/01/31 08:21:11;;;;;;;14.83;3.17;;;4.90;99.90;;;;;;5043716;28;20287;-73
2023/01/31 08:23:38;;;;;;;11.33;2.67;;;4.80;99.90;;;;;;5027556;28;20175;-73
2023/01/31 08:26:11;;;;;;;10.30;2.60;;;4.80;99.90;;;;;;5044015;28;20215;-72
2023/01/31 08:28:37;;;;;;;10.13;2.70;;;4.80;99.90;;;;;;5025340;28;20708;-73
2023/01/31 08:31:04;;;;;;;15.57;2.70;;;4.80;99.90;;;;;;5044378;28;20216;-73
2023/01/31 08:33:29;;;;;;;11.37;2.87;;;4.80;99.90;;;;;;5041297;28;20207;-73
2023/01/31 08:35:55;;;;;;;9.93;2.50;;;4.80;99.90;;;;;;5045904;28;20358;-72
2023/01/31 08:38:21;;;;;;;7.87;2.20;;;4.80;99.90;;;;;;5024788;28;20253;-74
2023/01/31 08:40:47;;;;;;;12.97;3.17;;;4.80;99.90;;;;;;5027522;28;20226;-74
2023/01/31 08:43:13;;;;;;;13.23;2.87;;;4.80;99.90;;;;;;5046781;28;20208;-74
2023/01/31 08:45:39;;;;;;;11.70;3.30;;;4.80;99.90;;;;;;5043692;28;20223;-73
2023/01/31 08:48:04;;;;;;;9.77;2.63;;;4.90;99.90;;;;;;5047468;28;20234;-72
2023/01/31 08:50:32;;;;;;;13.97;2.90;;;4.90;99.90;;;;;;5045044;28;20217;-74
2023/01/31 08:53:00;;;;;;;12.93;3.00;;;4.90;99.90;;;;;;5040589;28;20212;-74
2023/01/31 08:55:26;;;;;;;10.70;2.97;;;5.00;99.90;;;;;;5026102;28;20215;-74
2023/01/31 08:57:52;;;;;;;13.20;3.07;;;5.10;99.90;;;;;;5042759;28;20219;-73
2023/01/31 09:00:19;;;;;;;15.70;3.00;;;5.10;99.90;;;;;;5045184;28;20219;-74
2023/01/31 09:02:50;;;;;;;14.53;3.00;;;5.10;99.90;;;;;;5043208;28;20690;-74
2023/01/31 09:05:16;;;;;;;11.53;2.90;;;5.10;99.90;;;;;;5021314;28;20670;-75
2023/01/31 09:07:42;;;;;;;16.40;2.80;;;5.10;99.90;;;;;;5030241;28;20217;-73
2023/01/31 09:10:08;;;;;;;13.77;3.20;;;5.20;99.90;;;;;;5049205;28;20200;-73
2023/01/31 09:12:34;;;;;;;15.77;3.70;;;5.20;99.90;;;;;;5045658;28;20642;-74
2023/01/31 09:15:00;;;;;;;16.50;3.93;;;5.20;99.90;;;;;;5043393;28;20635;-73
2023/01/31 09:17:26;;;;;;;12.73;2.80;;;5.20;99.90;;;;;;5043855;28;20577;-73
2023/01/31 09:19:52;;;;;;;20.73;3.20;;;5.20;99.90;;;;;;5048631;28;20215;-73
2023/01/31 09:22:17;;;;;;;14.03;2.80;;;5.20;99.90;;;;;;5048557;28;20204;-73
2023/01/31 09:24:44;;;;;;;8.13;3.07;;;5.20;99.90;;;;;;5044722;28;20237;-73
2023/01/31 09:27:10;;;;;;;12.47;3.37;;;5.20;99.90;;;;;;5026971;28;20333;-71
2023/01/31 09:29:36;;;;;;;6.83;2.80;;;5.20;99.90;;;;;;5046054;28;20653;-73
2023/01/31 09:32:01;;;;;;;16.03;3.63;;;5.30;99.90;;;;;;5050255;28;20212;-74
2023/01/31 09:34:27;;;;;;;15.17;3.60;;;5.30;99.90;;;;;;5028570;28;20208;-74
2023/01/31 09:36:55;;;;;;;11.83;2.80;;;5.40;99.90;;;;;;5047739;28;20258;-73
2023/01/31 09:39:21;;;;;;;17.17;3.23;;;5.50;99.90;;;;;;5051675;28;20207;-72
2023/01/31 09:41:52;;;;;;;13.17;2.87;;;5.50;99.90;;;;;;5042829;28;20203;-76
2023/01/31 09:44:27;;;;;;;14.63;3.50;;;5.50;99.90;;;;;;5031223;28;20616;-73
2023/01/31 09:46:57;;;;;;;11.47;3.00;;;5.60;99.90;;;;;;5027917;28;20223;-73
2023/01/31 09:49:30;;;;;;;12.63;3.10;;;5.60;99.90;;;;;;5045982;28;20230;-73
2023/01/31 09:52:01;;;;;;;14.00;3.60;;;5.70;99.90;;;;;;5048350;28;20212;-73
2023/01/31 09:54:37;;;;;;;17.20;3.27;;;5.80;99.90;;;;;;5045258;28;20200;-73
2023/01/31 09:57:11;;;;;;;12.73;3.30;;;5.80;99.90;;;;;;5028353;28;20285;-71
2023/01/31 09:59:59;;;;;;;15.30;3.97;;;5.90;99.90;;;;;;5046346;28;20182;-74
2023/01/31 10:02:36;;;;;;;13.67;3.37;;;5.90;99.90;;;;;;5050293;28;20242;-73
2023/01/31 10:05:16;;;;;;;17.43;3.23;;;5.90;99.90;;;;;;5049537;28;20207;-70
2023/01/31 10:08:11;;;;;;;10.90;3.13;;;5.90;99.90;;;;;;5042694;28;20223;-73
2023/01/31 10:10:57;;;;;;;18.97;3.93;;;5.90;99.90;;;;;;5048031;28;20208;-74
2023/01/31 10:13:35;;;;;;;17.57;3.17;;;6.00;99.90;;;;;;5047415;28;20210;-72
2023/01/31 10:16:10;;;;;;;14.45;3.60;;;6.00;99.90;;;;;;5031101;28;20414;-72
2023/01/31 10:18:45;;;;;;;9.97;3.00;;;6.00;99.90;;;;;;5027608;28;20723;-74
2023/01/31 10:21:31;;;;;;;14.93;3.73;;;6.00;99.90;;;;;;5048186;28;20260;-74
2023/01/31 10:24:08;;;;;;;16.87;3.40;;;6.00;99.90;;;;;;5028512;28;20230;-74
2023/01/31 10:26:37;;;;;;;10.13;2.83;;;6.00;99.90;;;;;;5049053;28;20286;-74
2023/01/31 10:29:27;;;;;;;17.40;3.17;;;6.00;99.90;;;;;;5048112;28;20234;-74
2023/01/31 10:32:01;;;;;;;18.20;3.27;;;5.90;99.90;;;;;;5027203;28;20259;-74
2023/01/31 10:34:41;;;;;;;13.60;3.13;;;5.90;99.90;;;;;;5053369;28;20218;-74
2023/01/31 10:37:25;;;;;;;11.20;2.83;;;5.80;99.90;;;;;;5046520;28;20220;-73
2023/01/31 10:40:15;;;;;;;15.53;3.00;;;5.70;99.90;;;;;;5044750;28;20246;-70
2023/01/31 10:42:48;;;;;;;14.87;3.60;;;5.70;99.90;;;;;;5045961;28;20211;-74
2023/01/31 10:45:20;;;;;;;16.93;3.93;;;5.80;99.90;;;;;;5030523;28;20206;-74
2023/01/31 10:47:51;;;;;;;7.37;2.87;;;5.90;99.90;;;;;;5045956;28;20213;-74
2023/01/31 10:50:28;;;;;;;11.27;2.90;;;6.00;99.90;;;;;;5045786;28;20176;-74
2023/01/31 10:53:11;;;;;;;14.37;3.10;;;6.10;99.90;;;;;;5050096;28;20744;-73
2023/01/31 10:56:02;;;;;;;12.37;3.30;;;6.00;99.90;;;;;;5029591;28;20218;-72
2023/01/31 10:58:28;;;;;;;13.60;3.10;;;6.10;99.90;;;;;;5045938;28;20223;-74
2023/01/31 11:00:54;;;;;;;15.13;3.07;;;6.00;99.90;;;;;;5045516;28;20271;-74
2023/01/31 11:03:20;;;;;;;12.87;3.60;;;6.00;99.90;;;;;;5045824;28;20215;-74
2023/01/31 11:05:54;;;;;;;15.07;3.03;;;6.10;99.90;;;;;;5045941;28;20206;-72
2023/01/31 11:08:35;;;;;;;15.70;3.50;;;6.10;99.90;;;;;;5047040;28;20751;-74
2023/01/31 11:11:10;;;;;;;15.93;3.50;;;6.20;99.90;;;;;;5025703;28;20357;-73
2023/01/31 11:13:37;;;;;;;16.83;4.57;;;6.30;99.90;;;;;;5033237;28;20203;-73
2023/01/31 11:16:06;;;;;;;15.23;3.33;;;6.40;99.90;;;;;;5025545;28;20616;-71
2023/01/31 11:18:35;;;;;;;14.20;3.67;;;6.30;99.90;;;;;;5033799;28;20214;-73
2023/01/31 11:21:02;;;;;;;19.03;4.23;;;6.20;99.90;;;;;;5026021;28;20228;-73
2023/01/31 11:23:31;;;;;;;16.40;3.27;;;6.20;99.90;;;;;;5034806;28;20180;-73
2023/01/31 11:25:58;;;;;;;13.27;3.90;;;6.10;99.90;;;;;;5031027;28;20315;-71
2023/01/31 11:28:36;;;;;;;16.53;4.07;;;6.10;99.90;;;;;;5044929;28;20265;-74
2023/01/31 11:31:05;;;;;;;14.07;3.67;;;6.10;99.90;;;;;;5046876;28;20265;-72
2023/01/31 11:33:46;;;;;;;17.40;3.83;;;6.10;99.90;;;;;;5048423;28;20234;-72
2023/01/31 11:36:21;;;;;;;12.80;3.43;;;6.10;99.90;;;;;;5045588;28;20878;-76
2023/01/31 11:38:48;;;;;;;14.77;3.80;;;6.20;99.90;;;;;;5045308;28;20206;-74
2023/01/31 11:41:36;;;;;;;16.30;4.43;;;6.20;99.90;;;;;;5025121;28;20184;-74
2023/01/31 11:44:06;;;;;;;12.53;3.87;;;6.20;99.90;;;;;;5047732;28;20302;-71
2023/01/31 11:46:43;;;;;;;18.90;4.90;;;6.20;99.90;;;;;;5024936;28;20208;-74
2023/01/31 11:49:19;;;;;;;16.57;4.13;;;6.20;99.90;;;;;;5046640;28;20709;-75
2023/01/31 11:51:45;;;;;;;14.33;4.10;;;6.20;99.90;;;;;;5044584;28;20222;-75
2023/01/31 11:54:18;;;;;;;11.27;4.40;;;6.20;99.90;;;;;;5042359;28;20238;-75
2023/01/31 11:56:45;;;;;;;15.07;4.40;;;6.10;99.90;;;;;;5044475;28;20686;-74
2023/01/31 11:59:15;;;;;;;14.40;4.37;;;6.10;99.90;;;;;;5044051;28;20610;-74
2023/01/31 12:01:47;;;;;;;16.37;4.70;;;6.20;99.90;;;;;;5028582;28;20299;-75
2023/01/31 12:04:38;;;;;;;15.87;4.37;;;6.10;99.90;;;;;;5047187;28;20758;-74
2023/01/31 12:07:19;;;;;;;16.20;4.27;;;6.20;99.90;;;;;;5043335;28;20246;-74
2023/01/31 12:09:44;;;;;;;21.23;4.77;;;6.20;99.90;;;;;;5029125;28;20215;-74
2023/01/31 12:12:32;;;;;;;15.77;4.43;;;6.10;99.90;;;;;;5042228;28;20649;-74
2023/01/31 12:15:13;;;;;;;17.97;4.20;;;6.10;99.90;;;;;;5043484;28;20218;-75
2023/01/31 12:17:46;;;;;;;20.27;4.87;;;6.10;99.90;;;;;;5043458;28;20227;-73
2023/01/31 12:20:26;;;;;;;13.73;4.73;;;6.10;99.90;;;;;;5041163;28;20208;-74
2023/01/31 12:23:10;;;;;;;18.30;4.47;;;6.10;99.90;;;;;;5043425;28;20211;-74
2023/01/31 12:26:04;;;;;;;14.20;3.97;;;6.00;99.90;;;;;;5044289;28;20701;-74
2023/01/31 12:28:53;;;;;;;12.90;4.37;;;6.00;99.90;;;;;;5043769;28;20210;-75
2023/01/31 12:31:45;;;;;;;17.13;4.10;;;5.90;99.90;;;;;;5025256;28;20273;-75
2023/01/31 12:34:53;;;;;;;16.07;4.20;;;5.90;99.90;;;;;;5046126;28;20704;-75
2023/01/31 12:37:51;;;;;;;12.90;3.90;;;5.90;99.90;;;;;;5029364;28;20223;-75
2023/01/31 12:40:20;;;;;;;12.33;3.97;;;5.90;99.90;;;;;;5029083;28;20231;-75
2023/01/31 12:42:53;;;;;;;15.10;4.30;;;6.00;99.90;;;;;;5041960;28;20260;-74
2023/01/31 12:45:40;;;;;;;11.27;3.97;;;6.00;99.90;;;;;;5043129;28;20207;-75
2023/01/31 12:48:46;;;;;;;13.50;4.70;;;5.90;99.90;;;;;;5042052;28;20212;-74
2023/01/31 12:51:50;;;;;;;13.33;3.90;;;5.90;99.90;;;;;;5040300;28;20252;-75
2023/01/31 12:54:41;;;;;;;18.60;4.50;;;5.90;99.90;;;;;;4983670;28;20897;-74
2023/01/31 12:57:23;;;;;;;18.13;4.67;;;5.80;99.90;;;;;;5023336;28;20720;-74
2023/01/31 13:00:10;;;;;;;16.03;5.57;;;5.70;99.90;;;;;;5043630;28;20241;-74
2023/01/31 13:02:56;;;;;;;14.50;5.07;;;5.60;99.90;;;;;;5038965;28;20198;-75
2023/01/31 13:05:48;;;;;;;16.03;5.07;;;5.60;99.90;;;;;;5047018;28;20681;-74
2023/01/31 13:08:21;;;;;;;17.27;5.30;;;5.50;99.90;;;;;;5034642;28;20223;-74
2023/01/31 13:10:55;;;;;;;16.63;6.43;;;5.40;99.90;;;;;;5027150;28;20212;-75
2023/01/31 13:13:25;;;;;;;18.30;5.93;;;5.40;99.90;;;;;;5024703;28;20217;-74